Time;durP1;ratioP1;P1;durP2;ratioP2;P2;SDS_P1;SDS_P2;PMS_P1;PMS_P2;Temp;Humidity;BMP_temperature;BMP_pressure;BME280_temperature;BME280_humidity;BME280_pressure;Samples;Min_cycle;Max_cycle;Signal;HPM_P1;HPM_P2
2022/10/23 00:01:49;;;;;;;;;;;13.20;89.30;;;;;;4930158;28;20073;-90
2022/10/23 00:04:16;;;;;;;;;;;13.10;89.40;;;;;;4927005;28;20288;-90
2022/10/23 00:06:53;;;;;;;;;;;13.10;89.40;;;;;;4920953;28;20632;-89
2022/10/23 00:09:24;;;;;;;;;;;13.10;89.20;;;;;;4923148;28;20087;-89
2022/10/23 00:11:53;;;;;;;;;;;13.10;89.10;;;;;;4907482;28;20111;-89
2022/10/23 00:14:27;;;;;;;;;;;13.10;89.30;;;;;;4930259;28;20195;-90
2022/10/23 00:16:56;;;;;;;;;;;13.10;89.40;;;;;;4929566;28;20154;-90
2022/10/23 00:19:30;;;;;;;;;;;13.10;89.30;;;;;;4935976;28;20131;-91
2022/10/23 00:21:59;;;;;;;;;;;13.10;89.40;;;;;;4924937;28;20260;-89
2022/10/23 00:24:25;;;;;;;;;;;13.20;89.60;;;;;;4922671;28;20250;-88
2022/10/23 00:26:54;;;;;;;;;;;13.20;89.60;;;;;;4909498;28;20084;-88
2022/10/23 00:29:27;;;;;;;;;;;13.20;89.60;;;;;;4923379;28;20207;-88
2022/10/23 00:32:02;;;;;;;;;;;13.20;89.70;;;;;;4927548;28;20228;-89
2022/10/23 00:34:38;;;;;;;;;;;13.20;89.70;;;;;;4930557;28;20302;-88
2022/10/23 00:37:13;;;;;;;;;;;13.10;89.90;;;;;;4934776;28;20308;-89
2022/10/23 00:39:42;;;;;;;;;;;13.20;89.80;;;;;;4929085;28;19921;-89
2022/10/23 00:42:18;;;;;;;;;;;13.10;89.80;;;;;;4918693;28;20277;-90
2022/10/23 00:44:53;;;;;;;;;;;13.10;89.70;;;;;;4932308;28;20114;-89
2022/10/23 00:47:28;;;;;;;;;;;13.10;89.70;;;;;;4930222;28;20257;-90
2022/10/23 00:49:59;;;;;;;;;;;13.10;89.60;;;;;;4932196;28;20230;-89
2022/10/23 00:52:36;;;;;;;;;;;13.10;89.50;;;;;;4903448;28;21134;-90
2022/10/23 00:55:12;;;;;;;;;;;13.00;89.30;;;;;;4931094;28;19914;-91
2022/10/23 00:57:43;;;;;;;;;;;13.00;89.30;;;;;;4927908;28;19928;-90
2022/10/23 01:00:23;;;;;;;;;;;13.00;89.40;;;;;;4939070;28;19917;-91
2022/10/23 01:03:01;;;;;;;;;;;13.00;89.50;;;;;;4929083;28;20335;-90
2022/10/23 01:05:58;;;;;;;;;;;13.00;89.40;;;;;;4932105;28;20215;-90
2022/10/23 01:08:51;;;;;;;;;;;12.90;89.30;;;;;;4947522;28;20181;-90
2022/10/23 01:11:41;;;;;;;;;;;;;;;;;;;;;
2022/10/23 01:14:12;;;;;;;;;;;12.90;89.20;;;;;;4942993;28;19917;-90
2022/10/23 01:17:06;;;;;;;;;;;12.80;89.10;;;;;;4939323;28;20091;-90
2022/10/23 01:19:32;;;;;;;;;;;12.80;89.20;;;;;;4931578;28;20450;-90
2022/10/23 01:22:31;;;;;;;;;;;12.70;89.10;;;;;;4930842;28;20353;-90
2022/10/23 01:25:23;;;;;;;;;;;12.70;89.20;;;;;;4941767;28;20321;-90
2022/10/23 01:27:55;;;;;;;;;;;12.70;89.10;;;;;;4932399;28;20285;-89
2022/10/23 01:30:21;;;;;;;;;;;12.70;89.00;;;;;;4925321;28;20171;-88
2022/10/23 01:33:06;;;;;;;;;;;12.70;89.00;;;;;;4918748;28;20275;-87
2022/10/23 01:35:39;;;;;;;;;;;12.60;89.00;;;;;;4916661;28;20179;-88
2022/10/23 01:38:05;;;;;;;;;;;12.60;89.30;;;;;;4990946;28;20012;-89
2022/10/23 01:40:37;;;;;;;;;;;12.60;89.40;;;;;;5010462;28;20506;-89
2022/10/23 01:43:04;;;;;;;;;;;12.70;89.50;;;;;;5013126;28;20458;-89
2022/10/23 01:45:37;;;;;;;;;;;12.70;89.60;;;;;;5034183;22;19923;-82
2022/10/23 01:48:04;;;;;;;;;;;12.80;89.80;;;;;;5011685;28;19925;-81
2022/10/23 01:50:30;;;;;;;;;;;12.80;89.90;;;;;;5008762;28;19913;-81
2022/10/23 01:52:55;;;;;;;;;;;12.90;89.90;;;;;;5007730;28;19959;-82
2022/10/23 01:55:22;;;;;;;;;;;13.00;90.00;;;;;;5011391;28;19922;-81
2022/10/23 01:57:48;;;;;;;;;;;13.00;90.00;;;;;;5010912;28;19917;-82
2022/10/23 02:00:15;;;;;;;;;;;13.00;90.00;;;;;;5023664;28;20366;-81
2022/10/23 02:02:42;;;;;;;;;;;13.00;90.10;;;;;;5012975;28;19921;-80
2022/10/23 02:05:10;;;;;;;;;;;13.00;90.10;;;;;;5011982;28;20301;-81
2022/10/23 02:07:36;;;;;;;;;;;13.10;90.00;;;;;;5013837;28;20027;-82
2022/10/23 02:10:03;;;;;;;;;;;13.00;90.00;;;;;;5010416;28;20003;-81
2022/10/23 02:12:29;;;;;;;;;;;13.00;90.00;;;;;;5012213;28;19913;-81
2022/10/23 02:15:00;;;;;;;;;;;13.00;89.90;;;;;;5011575;28;19920;-81
2022/10/23 02:17:37;;;;;;;;;;;13.00;89.80;;;;;;5013049;28;19960;-82
2022/10/23 02:20:12;;;;;;;;;;;13.00;89.80;;;;;;5009072;28;19956;-81
2022/10/23 02:22:41;;;;;;;;;;;13.10;89.60;;;;;;5017613;28;19913;-82
2022/10/23 02:25:09;;;;;;;;;;;13.10;89.60;;;;;;5018911;28;19946;-81
2022/10/23 02:27:37;;;;;;;;;;;13.10;89.40;;;;;;5011487;28;20425;-82
2022/10/23 02:30:05;;;;;;;;;;;13.10;89.20;;;;;;5023987;28;19920;-82
2022/10/23 02:32:31;;;;;;;;;;;13.10;88.90;;;;;;5026864;28;19913;-83
2022/10/23 02:34:57;;;;;;;;;;;13.10;88.70;;;;;;5016833;28;19920;-83
2022/10/23 02:37:24;;;;;;;;;;;13.10;88.80;;;;;;5016530;28;19914;-81
2022/10/23 02:39:50;;;;;;;;;;;13.10;88.50;;;;;;5017701;28;19917;-83
2022/10/23 02:42:23;;;;;;;;;;;13.10;88.50;;;;;;5019343;28;19976;-83
2022/10/23 02:44:54;;;;;;;;;;;13.10;88.50;;;;;;5017369;28;19967;-81
2022/10/23 02:47:20;;;;;;;;;;;13.10;88.60;;;;;;5014286;28;19929;-82
2022/10/23 02:49:48;;;;;;;;;;;13.20;88.30;;;;;;5015301;28;20590;-80
2022/10/23 02:52:22;;;;;;;;;;;13.10;88.00;;;;;;5014966;28;19921;-82
2022/10/23 02:55:03;;;;;;;;;;;13.10;88.00;;;;;;5015490;28;19920;-81
2022/10/23 02:57:34;;;;;;;;;;;13.10;88.10;;;;;;5015275;28;19913;-81
2022/10/23 03:00:01;;;;;;;;;;;13.20;88.10;;;;;;5010545;28;20004;-80
2022/10/23 03:02:31;;;;;;;;;;;13.20;88.10;;;;;;5010562;28;19924;-81
2022/10/23 03:04:59;;;;;;;;;;;13.20;88.10;;;;;;5012495;28;19984;-81
2022/10/23 03:07:25;;;;;;;;;;;13.20;88.40;;;;;;5014430;28;19913;-80
2022/10/23 03:09:50;;;;;;;;;;;13.20;88.40;;;;;;5006865;28;19920;-81
2022/10/23 03:12:15;;;;;;;;;;;13.30;88.40;;;;;;5026241;28;19917;-81
2022/10/23 03:14:41;;;;;;;;;;;13.30;88.10;;;;;;5002509;28;19972;-80
2022/10/23 03:17:06;;;;;;;;;;;13.30;88.50;;;;;;5013187;28;19920;-81
2022/10/23 03:19:32;;;;;;;;;;;13.30;88.10;;;;;;5010418;28;19956;-82
2022/10/23 03:21:57;;;;;;;;;;;13.30;88.10;;;;;;5010149;28;20443;-81
2022/10/23 03:24:23;;;;;;;;;;;13.30;88.30;;;;;;5011312;28;19936;-82
2022/10/23 03:26:48;;;;;;;;;;;13.30;88.20;;;;;;5011063;28;20000;-81
2022/10/23 03:29:14;;;;;;;;;;;13.30;88.10;;;;;;5007996;28;19920;-81
2022/10/23 03:31:39;;;;;;;;;;;13.30;88.20;;;;;;5010712;28;19913;-81
2022/10/23 03:34:09;;;;;;;;;;;13.30;88.20;;;;;;5008700;28;19920;-81
2022/10/23 03:36:35;;;;;;;;;;;13.30;88.20;;;;;;5012749;28;19921;-82
2022/10/23 03:39:01;;;;;;;;;;;13.40;88.30;;;;;;5011088;28;19921;-81
2022/10/23 03:41:26;;;;;;;;;;;13.50;87.70;;;;;;5028312;28;20393;-81
2022/10/23 03:43:52;;;;;;;;;;;13.40;87.60;;;;;;5015146;28;19921;-82
2022/10/23 03:46:17;;;;;;;;;;;13.30;87.20;;;;;;5013977;28;19941;-82
2022/10/23 03:48:42;;;;;;;;;;;13.20;87.30;;;;;;5009112;28;19917;-82
2022/10/23 03:51:08;;;;;;;;;;;13.10;87.10;;;;;;5017742;28;19913;-81
2022/10/23 03:53:33;;;;;;;;;;;13.10;87.20;;;;;;5012113;28;20023;-81
2022/10/23 03:55:59;;;;;;;;;;;13.10;87.50;;;;;;5013680;28;19920;-80
2022/10/23 03:58:24;;;;;;;;;;;13.00;87.60;;;;;;5014680;28;19956;-80
2022/10/23 04:00:50;;;;;;;;;;;12.90;88.10;;;;;;5013426;28;20428;-81
2022/10/23 04:03:15;;;;;;;;;;;13.10;87.80;;;;;;5021191;28;19914;-81
2022/10/23 04:05:41;;;;;;;;;;;13.10;87.60;;;;;;5016676;28;19920;-80
2022/10/23 04:08:07;;;;;;;;;;;13.10;87.40;;;;;;5012494;28;19913;-81
2022/10/23 04:10:32;;;;;;;;;;;13.10;87.50;;;;;;5035554;28;19913;-82
2022/10/23 04:12:58;;;;;;;;;;;13.10;87.40;;;;;;5016602;28;19949;-82
2022/10/23 04:15:23;;;;;;;;;;;13.10;87.30;;;;;;5013198;28;19917;-81
2022/10/23 04:17:49;;;;;;;;;;;13.10;87.30;;;;;;5016038;28;19945;-84
2022/10/23 04:20:14;;;;;;;;;;;13.10;87.10;;;;;;5022029;28;20008;-82
2022/10/23 04:22:40;;;;;;;;;;;13.10;87.50;;;;;;5015792;28;19918;-82
2022/10/23 04:25:05;;;;;;;;;;;13.10;87.50;;;;;;5014955;28;19914;-82
2022/10/23 04:27:33;;;;;;;;;;;13.10;87.40;;;;;;5010896;28;19914;-83
2022/10/23 04:29:58;;;;;;;;;;;13.10;87.30;;;;;;5018666;28;19920;-83
2022/10/23 04:32:24;;;;;;;;;;;13.00;87.50;;;;;;5015009;28;19917;-82
2022/10/23 04:34:50;;;;;;;;;;;12.90;87.60;;;;;;5014696;28;19927;-82
2022/10/23 04:37:15;;;;;;;;;;;12.80;88.10;;;;;;5025818;28;19931;-82
2022/10/23 04:39:41;;;;;;;;;;;12.90;88.10;;;;;;5021271;28;19941;-82
2022/10/23 04:42:06;;;;;;;;;;;12.90;88.10;;;;;;5034393;28;19967;-82
2022/10/23 04:44:32;;;;;;;;;;;12.90;88.10;;;;;;5018126;28;19936;-82
2022/10/23 04:46:57;;;;;;;;;;;12.90;88.20;;;;;;5017463;28;19925;-82
2022/10/23 04:49:23;;;;;;;;;;;12.90;88.40;;;;;;5027029;28;19913;-81
2022/10/23 04:51:48;;;;;;;;;;;13.00;88.30;;;;;;5021446;28;19913;-81
2022/10/23 04:54:14;;;;;;;;;;;12.90;88.40;;;;;;5021484;28;19914;-82
2022/10/23 04:56:39;;;;;;;;;;;13.00;88.00;;;;;;5020336;28;19975;-83
2022/10/23 04:59:05;;;;;;;;;;;12.90;88.00;;;;;;5015599;28;19996;-81
2022/10/23 05:01:30;;;;;;;;;;;12.80;88.30;;;;;;5045904;28;20040;-83
2022/10/23 05:03:56;;;;;;;;;;;12.80;88.50;;;;;;5023702;28;20047;-83
2022/10/23 05:06:21;;;;;;;;;;;12.80;88.40;;;;;;5034551;28;19901;-81
2022/10/23 05:08:47;;;;;;;;;;;12.80;88.30;;;;;;5035679;28;19902;-81
2022/10/23 05:11:12;;;;;;;;;;;12.80;88.30;;;;;;5038366;28;19928;-81
2022/10/23 05:13:38;;;;;;;;;;;12.70;88.50;;;;;;5028860;28;19932;-82
2022/10/23 05:16:03;;;;;;;;;;;12.70;88.50;;;;;;5016827;28;20047;-81
2022/10/23 05:18:31;;;;;;;;;;;12.70;88.50;;;;;;5013188;28;19928;-83
2022/10/23 05:21:25;;;;;;;;;;;12.70;88.70;;;;;;5024624;28;19924;-82
2022/10/23 05:23:51;;;;;;;;;;;12.60;88.60;;;;;;5008407;28;20008;-82
2022/10/23 05:26:16;;;;;;;;;;;12.60;88.70;;;;;;5015847;28;19917;-82
2022/10/23 05:28:42;;;;;;;;;;;12.50;88.70;;;;;;5016692;28;19914;-82
2022/10/23 05:31:08;;;;;;;;;;;12.50;88.60;;;;;;5011673;28;19913;-82
2022/10/23 05:33:34;;;;;;;;;;;12.50;88.70;;;;;;5015205;28;19917;-82
2022/10/23 05:36:00;;;;;;;;;;;12.50;88.60;;;;;;5014665;28;19913;-82
2022/10/23 05:38:27;;;;;;;;;;;12.50;88.70;;;;;;5015806;28;19909;-82
2022/10/23 05:40:52;;;;;;;;;;;12.50;88.50;;;;;;5013452;28;19956;-82
2022/10/23 05:43:18;;;;;;;;;;;12.60;88.50;;;;;;5003536;28;19918;-82
2022/10/23 05:45:43;;;;;;;;;;;12.60;88.40;;;;;;5012606;28;19914;-82
2022/10/23 05:48:09;;;;;;;;;;;12.60;88.40;;;;;;5013311;28;19921;-81
2022/10/23 05:50:35;;;;;;;;;;;12.50;88.60;;;;;;5038050;28;19921;-82
2022/10/23 05:53:00;;;;;;;;;;;12.50;88.70;;;;;;5017600;28;19913;-82
2022/10/23 05:55:26;;;;;;;;;;;12.50;88.70;;;;;;5012747;28;20475;-82
2022/10/23 05:57:51;;;;;;;;;;;12.50;88.70;;;;;;5020601;28;19963;-82
2022/10/23 06:00:17;;;;;;;;;;;12.50;88.80;;;;;;5008732;28;19925;-81
2022/10/23 06:02:42;;;;;;;;;;;12.50;88.60;;;;;;5006562;28;19961;-82
2022/10/23 06:05:08;;;;;;;;;;;12.50;88.80;;;;;;5006958;28;19937;-82
2022/10/23 06:07:33;;;;;;;;;;;12.50;89.00;;;;;;5009403;28;19959;-82
2022/10/23 06:09:59;;;;;;;;;;;12.50;88.90;;;;;;5010756;28;19952;-82
2022/10/23 06:12:24;;;;;;;;;;;12.40;88.90;;;;;;5008556;28;19918;-82
2022/10/23 06:14:50;;;;;;;;;;;12.50;88.90;;;;;;5012232;28;20297;-82
2022/10/23 06:17:15;;;;;;;;;;;12.50;88.90;;;;;;5009916;28;19914;-82
2022/10/23 06:19:42;;;;;;;;;;;12.50;88.90;;;;;;5013597;28;19924;-82
2022/10/23 06:22:08;;;;;;;;;;;12.50;88.80;;;;;;5011707;28;19932;-82
2022/10/23 06:24:33;;;;;;;;;;;12.60;88.60;;;;;;5013018;28;19936;-82
2022/10/23 06:26:58;;;;;;;;;;;12.50;88.60;;;;;;5010709;28;20277;-81
2022/10/23 06:29:24;;;;;;;;;;;12.50;88.80;;;;;;5010900;28;19964;-82
2022/10/23 06:31:49;;;;;;;;;;;12.40;88.80;;;;;;5012512;28;20389;-82
2022/10/23 06:34:15;;;;;;;;;;;12.50;88.90;;;;;;5013565;28;20032;-82
2022/10/23 06:36:40;;;;;;;;;;;12.50;89.00;;;;;;5008301;28;19965;-83
2022/10/23 06:39:07;;;;;;;;;;;12.50;89.00;;;;;;5011850;28;19913;-82
2022/10/23 06:41:32;;;;;;;;;;;12.50;89.00;;;;;;5030191;28;19924;-82
2022/10/23 06:43:58;;;;;;;;;;;12.60;89.00;;;;;;5010384;28;20004;-82
2022/10/23 06:46:25;;;;;;;;;;;12.60;88.90;;;;;;5015240;28;19921;-81
2022/10/23 06:48:51;;;;;;;;;;;12.60;88.90;;;;;;5011540;28;20134;-81
2022/10/23 06:51:16;;;;;;;;;;;12.70;88.70;;;;;;5011406;28;19936;-82
2022/10/23 06:53:42;;;;;;;;;;;12.70;88.80;;;;;;5010688;28;19921;-81
2022/10/23 06:56:09;;;;;;;;;;;12.80;89.00;;;;;;5010347;28;20382;-81
2022/10/23 06:58:35;;;;;;;;;;;12.80;89.00;;;;;;5027582;28;19932;-82
2022/10/23 07:01:01;;;;;;;;;;;12.90;88.90;;;;;;5013364;28;19924;-81
2022/10/23 07:03:27;;;;;;;;;;;12.80;89.10;;;;;;5002705;28;19984;-84
2022/10/23 07:05:52;;;;;;;;;;;13.00;89.00;;;;;;5004573;28;20388;-84
2022/10/23 07:08:18;;;;;;;;;;;13.00;89.40;;;;;;5029569;28;19972;-82
2022/10/23 07:10:44;;;;;;;;;;;13.00;89.60;;;;;;5014824;28;19920;-83
2022/10/23 07:13:10;;;;;;;;;;;13.10;89.60;;;;;;5015932;28;19913;-83
2022/10/23 07:15:35;;;;;;;;;;;13.10;89.80;;;;;;5007708;28;20008;-84
2022/10/23 07:18:03;;;;;;;;;;;13.20;89.70;;;;;;5008366;28;19949;-81
2022/10/23 07:20:33;;;;;;;;;;;13.20;89.60;;;;;;5026507;28;19968;-82
2022/10/23 07:22:59;;;;;;;;;;;13.20;89.60;;;;;;5011947;28;19917;-82
2022/10/23 07:25:25;;;;;;;;;;;13.30;89.70;;;;;;5028935;28;19996;-82
2022/10/23 07:27:51;;;;;;;;;;;13.30;89.70;;;;;;5013542;28;19913;-82
2022/10/23 07:30:16;;;;;;;;;;;13.40;89.70;;;;;;5015580;28;19920;-82
2022/10/23 07:32:43;;;;;;;;;;;13.50;89.70;;;;;;5011249;28;19984;-82
2022/10/23 07:35:09;;;;;;;;;;;13.50;89.50;;;;;;5014632;28;19922;-82
2022/10/23 07:37:34;;;;;;;;;;;13.60;89.50;;;;;;5008258;28;19921;-83
2022/10/23 07:40:00;;;;;;;;;;;13.60;89.50;;;;;;5036004;28;19919;-82
2022/10/23 07:42:25;;;;;;;;;;;13.60;89.50;;;;;;5009647;28;19925;-82
2022/10/23 07:44:51;;;;;;;;;;;13.60;89.50;;;;;;5010209;28;20396;-83
2022/10/23 07:47:16;;;;;;;;;;;13.60;89.50;;;;;;5055252;23;19925;-85
2022/10/23 07:49:42;;;;;;;;;;;13.70;89.30;;;;;;5032527;28;19912;-84
2022/10/23 07:52:07;;;;;;;;;;;13.70;89.40;;;;;;5032111;28;19917;-84
2022/10/23 07:54:33;;;;;;;;;;;13.80;89.50;;;;;;5039688;28;19916;-83
2022/10/23 07:56:59;;;;;;;;;;;13.90;89.40;;;;;;5061523;28;19924;-85
2022/10/23 07:59:24;;;;;;;;;;;13.90;89.30;;;;;;5039505;28;19948;-84
2022/10/23 08:01:51;;;;;;;;;;;14.00;89.20;;;;;;5032675;28;19971;-85
2022/10/23 08:04:18;;;;;;;;;;;14.10;88.90;;;;;;5033025;28;20480;-83
2022/10/23 08:06:43;;;;;;;;;;;14.10;88.80;;;;;;5042255;28;19916;-82
2022/10/23 08:09:09;;;;;;;;;;;14.20;88.70;;;;;;5054373;28;19915;-84
2022/10/23 08:11:35;;;;;;;;;;;14.20;88.60;;;;;;5033529;28;20390;-84
2022/10/23 08:14:04;;;;;;;;;;;14.30;88.60;;;;;;5036782;28;20294;-83
2022/10/23 08:16:33;;;;;;;;;;;14.40;88.50;;;;;;5033198;28;19948;-83
2022/10/23 08:18:59;;;;;;;;;;;14.50;88.30;;;;;;5061259;28;19912;-83
2022/10/23 08:21:25;;;;;;;;;;;14.60;88.10;;;;;;5051172;28;20362;-83
2022/10/23 08:23:54;;;;;;;;;;;14.60;88.20;;;;;;5045168;28;19991;-82
2022/10/23 08:26:19;;;;;;;;;;;14.70;88.00;;;;;;5062058;28;19913;-83
2022/10/23 08:28:45;;;;;;;;;;;14.80;88.00;;;;;;5045384;28;19928;-82
2022/10/23 08:31:12;;;;;;;;;;;15.00;87.40;;;;;;5067661;28;19964;-83
2022/10/23 08:33:38;;;;;;;;;;;15.00;87.40;;;;;;5053635;28;20390;-85
2022/10/23 08:36:04;;;;;;;;;;;15.10;87.50;;;;;;5032003;28;19917;-87
2022/10/23 08:38:30;;;;;;;;;;;15.10;87.60;;;;;;5035411;28;19916;-85
2022/10/23 08:41:29;;;;;;;;;;;15.10;87.70;;;;;;5035750;28;19909;-88
2022/10/23 08:44:21;;;;;;;;;;;15.10;87.50;;;;;;5047228;28;19913;-86
2022/10/23 08:46:49;;;;;;;;;;;15.20;87.40;;;;;;5005313;28;19928;-85
2022/10/23 08:49:14;;;;;;;;;;;15.30;87.40;;;;;;5044900;28;19960;-83
2022/10/23 08:51:42;;;;;;;;;;;15.30;86.90;;;;;;5038407;28;20421;-86
2022/10/23 08:54:16;;;;;;;;;;;15.40;87.20;;;;;;5055280;28;19917;-84
2022/10/23 08:56:45;;;;;;;;;;;15.50;87.10;;;;;;5047192;28;19920;-86
2022/10/23 08:59:28;;;;;;;;;;;15.70;86.70;;;;;;5051547;28;20334;-85
2022/10/23 09:01:53;;;;;;;;;;;15.90;86.10;;;;;;5053570;28;19917;-85
2022/10/23 09:04:19;;;;;;;;;;;15.80;84.90;;;;;;5054855;28;19915;-83
2022/10/23 09:06:52;;;;;;;;;;;15.90;84.10;;;;;;5033806;28;19913;-83
2022/10/23 09:09:37;;;;;;;;;;;16.00;84.50;;;;;;5054044;28;19917;-81
2022/10/23 09:12:03;;;;;;;;;;;16.10;84.10;;;;;;5040319;28;19913;-83
2022/10/23 09:14:38;;;;;;;;;;;16.20;84.00;;;;;;5036453;28;19955;-83
2022/10/23 09:17:09;;;;;;;;;;;16.20;83.70;;;;;;5045525;28;19916;-83
2022/10/23 09:19:35;;;;;;;;;;;16.30;83.60;;;;;;5035364;28;19921;-85
2022/10/23 09:22:00;;;;;;;;;;;16.40;83.40;;;;;;5037385;28;19923;-85
2022/10/23 09:24:30;;;;;;;;;;;16.50;82.80;;;;;;5055362;28;19995;-83
2022/10/23 09:26:56;;;;;;;;;;;16.50;82.60;;;;;;5053286;28;19928;-84
2022/10/23 09:29:22;;;;;;;;;;;16.60;82.50;;;;;;5028046;28;19913;-83
2022/10/23 09:31:48;;;;;;;;;;;16.80;81.60;;;;;;5035417;28;19912;-85
2022/10/23 09:34:18;;;;;;;;;;;16.80;82.00;;;;;;5044643;28;19912;-85
2022/10/23 09:36:51;;;;;;;;;;;16.90;82.80;;;;;;5054170;28;19917;-83
2022/10/23 09:39:26;;;;;;;;;;;17.00;83.50;;;;;;5032594;28;20055;-84
2022/10/23 09:41:51;;;;;;;;;;;17.00;83.80;;;;;;5026013;28;20443;-83
2022/10/23 09:44:40;;;;;;;;;;;17.00;83.80;;;;;;5037416;28;20007;-83
2022/10/23 09:47:05;;;;;;;;;;;17.10;83.50;;;;;;5044705;28;19924;-83
2022/10/23 09:49:35;;;;;;;;;;;17.10;83.60;;;;;;5051029;28;19920;-82
2022/10/23 09:52:04;;;;;;;;;;;17.10;83.50;;;;;;5042930;28;20299;-83
2022/10/23 09:54:32;;;;;;;;;;;17.10;83.50;;;;;;5037563;28;20713;-82
2022/10/23 09:57:02;;;;;;;;;;;17.20;83.00;;;;;;5056423;28;19983;-82
2022/10/23 09:59:28;;;;;;;;;;;17.30;82.30;;;;;;5041197;28;19948;-83
2022/10/23 10:01:56;;;;;;;;;;;17.30;82.20;;;;;;5039316;28;19923;-83
2022/10/23 10:04:51;;;;;;;;;;;17.40;82.10;;;;;;5038544;28;20011;-87
2022/10/23 10:07:18;;;;;;;;;;;17.50;82.20;;;;;;5026315;28;19963;-86
2022/10/23 10:09:44;;;;;;;;;;;17.60;82.20;;;;;;5037555;28;19924;-89
2022/10/23 10:12:21;;;;;;;;;;;17.80;81.70;;;;;;5058706;28;19912;-85
2022/10/23 10:14:53;;;;;;;;;;;17.80;81.80;;;;;;5047174;28;20373;-84
2022/10/23 10:17:25;;;;;;;;;;;17.90;80.90;;;;;;5060022;28;20326;-84
2022/10/23 10:19:53;;;;;;;;;;;18.00;81.10;;;;;;5039338;28;20653;-84
2022/10/23 10:22:25;;;;;;;;;;;18.00;80.80;;;;;;5049134;28;19917;-85
2022/10/23 10:24:53;;;;;;;;;;;18.10;80.30;;;;;;5032645;28;20334;-86
2022/10/23 10:27:19;;;;;;;;;;;18.10;79.20;;;;;;5038565;28;19912;-85
2022/10/23 10:29:53;;;;;;;;;;;18.10;78.50;;;;;;5039985;28;19920;-87
2022/10/23 10:32:38;;;;;;;;;;;18.20;77.80;;;;;;5038592;28;19920;-85
2022/10/23 10:35:12;;;;;;;;;;;18.30;78.00;;;;;;5032535;28;19966;-86
2022/10/23 10:37:44;;;;;;;;;;;18.50;77.20;;;;;;5039319;28;20275;-89
2022/10/23 10:40:16;;;;;;;;;;;18.50;76.50;;;;;;5036592;28;19919;-89
2022/10/23 10:43:00;;;;;;;;;;;18.50;75.80;;;;;;5047527;28;19931;-90
2022/10/23 10:45:31;;;;;;;;;;;18.30;77.80;;;;;;5035310;28;20371;-90
2022/10/23 10:48:11;;;;;;;;;;;18.20;78.80;;;;;;5032499;28;19939;-89
2022/10/23 10:50:48;;;;;;;;;;;18.10;79.50;;;;;;5048399;28;19934;-91
2022/10/23 10:53:16;;;;;;;;;;;18.20;80.00;;;;;;5032901;28;19956;-86
2022/10/23 10:55:42;;;;;;;;;;;18.20;79.00;;;;;;5025107;28;19956;-86
2022/10/23 10:58:34;;;;;;;;;;;18.10;79.10;;;;;;5033835;28;19942;-85
2022/10/23 11:01:02;;;;;;;;;;;18.20;78.50;;;;;;5026118;28;19963;-86
2022/10/23 11:03:30;;;;;;;;;;;18.30;78.80;;;;;;5054952;28;19912;-86
2022/10/23 11:05:57;;;;;;;;;;;18.40;78.00;;;;;;5029294;28;19920;-86
2022/10/23 11:08:33;;;;;;;;;;;18.40;78.00;;;;;;5062986;28;19960;-87
2022/10/23 11:11:02;;;;;;;;;;;18.30;77.20;;;;;;5045636;28;19920;-86
2022/10/23 11:13:29;;;;;;;;;;;18.30;77.30;;;;;;5032000;28;20432;-86
2022/10/23 11:15:57;;;;;;;;;;;18.30;77.00;;;;;;5035063;28;19966;-85
2022/10/23 11:18:28;;;;;;;;;;;18.30;77.20;;;;;;5056049;28;19920;-86
2022/10/23 11:21:00;;;;;;;;;;;18.30;76.70;;;;;;5043743;28;20007;-86
2022/10/23 11:23:53;;;;;;;;;;;18.30;76.50;;;;;;5049086;28;19912;-87
2022/10/23 11:26:22;;;;;;;;;;;18.20;76.60;;;;;;5047849;28;19917;-85
2022/10/23 11:28:47;;;;;;;;;;;18.30;77.10;;;;;;5047686;28;19991;-84
2022/10/23 11:31:18;;;;;;;;;;;18.20;76.50;;;;;;5032799;28;20441;-85
2022/10/23 11:34:02;;;;;;;;;;;18.20;76.30;;;;;;5022580;28;20425;-85
2022/10/23 11:37:07;;;;;;;;;;;18.40;77.20;;;;;;5050432;28;20405;-86
2022/10/23 11:39:35;;;;;;;;;;;18.50;76.70;;;;;;4929530;29;19914;-86
2022/10/23 11:42:03;;;;;;;;;;;18.60;76.30;;;;;;4925965;29;19918;-86
2022/10/23 11:44:40;;;;;;;;;;;18.50;76.60;;;;;;4999295;28;20310;-89
2022/10/23 11:47:25;;;;;;;;;;;18.60;76.40;;;;;;5027640;28;19924;-85
2022/10/23 11:49:51;;;;;;;;;;;18.60;76.10;;;;;;5063554;28;19913;-87
2022/10/23 11:52:22;;;;;;;;;;;18.70;76.50;;;;;;5041938;28;19951;-86
2022/10/23 11:54:47;;;;;;;;;;;18.80;76.30;;;;;;5034739;28;20433;-87
2022/10/23 11:57:14;;;;;;;;;;;18.70;76.90;;;;;;5045762;28;19920;-87
2022/10/23 11:59:51;;;;;;;;;;;18.60;77.00;;;;;;5031453;28;19936;-89
2022/10/23 12:02:31;;;;;;;;;;;18.60;77.20;;;;;;5029656;28;20337;-88
2022/10/23 12:04:59;;;;;;;;;;;18.60;77.60;;;;;;5030934;28;20364;-88
2022/10/23 12:07:29;;;;;;;;;;;18.70;76.60;;;;;;5051070;28;20409;-86
2022/10/23 12:10:02;;;;;;;;;;;18.70;75.50;;;;;;5042182;28;19912;-86
2022/10/23 12:12:39;;;;;;;;;;;18.80;75.80;;;;;;5034724;28;19955;-87
2022/10/23 12:15:13;;;;;;;;;;;18.90;75.00;;;;;;5032100;28;20004;-88
2022/10/23 12:17:39;;;;;;;;;;;19.00;73.60;;;;;;5028591;28;20285;-88
2022/10/23 12:20:08;;;;;;;;;;;19.00;72.80;;;;;;5030059;28;19953;-90
2022/10/23 12:22:46;;;;;;;;;;;19.10;71.80;;;;;;5043080;28;20517;-87
2022/10/23 12:25:24;;;;;;;;;;;19.10;72.10;;;;;;5027869;28;19916;-86
2022/10/23 12:27:49;;;;;;;;;;;19.20;71.90;;;;;;5059504;28;19913;-86
2022/10/23 12:30:21;;;;;;;;;;;19.40;71.10;;;;;;5028739;28;19921;-91
2022/10/23 12:32:56;;;;;;;;;;;19.40;71.70;;;;;;5026925;28;20012;-85
2022/10/23 12:35:26;;;;;;;;;;;19.30;72.00;;;;;;5043562;28;20283;-88
2022/10/23 12:38:18;;;;;;;;;;;19.50;70.50;;;;;;5028419;28;19982;-88
2022/10/23 12:40:44;;;;;;;;;;;19.50;70.20;;;;;;5014193;28;19996;-89
2022/10/23 12:43:27;;;;;;;;;;;19.50;70.00;;;;;;5042548;28;19920;-89
2022/10/23 12:45:53;;;;;;;;;;;19.50;69.80;;;;;;5005354;28;19916;-89
2022/10/23 12:48:20;;;;;;;;;;;19.40;70.50;;;;;;5002376;28;19920;-90
2022/10/23 12:50:50;;;;;;;;;;;19.50;70.10;;;;;;5005125;28;20532;-89
2022/10/23 12:53:16;;;;;;;;;;;19.40;70.30;;;;;;5009144;28;19909;-89
2022/10/23 12:56:02;;;;;;;;;;;19.60;69.90;;;;;;4985283;28;20082;-89
2022/10/23 12:58:30;;;;;;;;;;;19.50;70.40;;;;;;5002219;28;20425;-89
2022/10/23 13:01:19;;;;;;;;;;;19.60;70.30;;;;;;5006383;28;20019;-89
2022/10/23 13:03:51;;;;;;;;;;;19.60;69.80;;;;;;5000905;28;20005;-89
2022/10/23 13:06:20;;;;;;;;;;;19.60;69.80;;;;;;5023369;28;19924;-89
2022/10/23 13:08:46;;;;;;;;;;;19.60;69.30;;;;;;5020799;28;19944;-92
2022/10/23 13:11:27;;;;;;;;;;;19.60;70.80;;;;;;5004011;28;19917;-89
2022/10/23 13:14:25;;;;;;;;;;;19.60;69.70;;;;;;4996194;28;20345;-91
2022/10/23 13:17:24;;;;;;;;;;;;;;;;;;;;;
2022/10/23 13:20:07;;;;;;;;;;;19.80;69.60;;;;;;4893288;29;19934;-94
2022/10/23 13:23:07;;;;;;;;;;;19.80;69.50;;;;;;4872079;29;20174;-91
2022/10/23 13:28:45;;;;;;;;;;;19.80;70.50;;;;;;4885226;29;20452;-94
2022/10/23 13:31:14;;;;;;;;;;;19.80;70.40;;;;;;4862947;29;20035;-93
2022/10/23 13:37:16;;;;;;;;;;;19.80;69.20;;;;;;5021756;23;20031;-81
2022/10/23 13:40:14;;;;;;;;;;;19.80;69.60;;;;;;5006525;28;19913;-82
2022/10/23 13:42:49;;;;;;;;;;;19.80;69.80;;;;;;5022625;28;20044;-80
2022/10/23 13:45:34;;;;;;;;;;;19.70;70.20;;;;;;5016043;28;19921;-81
2022/10/23 13:48:00;;;;;;;;;;;19.70;69.40;;;;;;4977237;22;20470;-79
2022/10/23 13:50:25;;;;;;;;;;;19.60;69.90;;;;;;4982701;28;19909;-78
2022/10/23 13:52:51;;;;;;;;;;;19.60;70.50;;;;;;4969382;28;19909;-79
2022/10/23 13:55:24;;;;;;;;;;;19.60;69.70;;;;;;4956380;28;20708;-79
2022/10/23 13:57:49;;;;;;;;;;;19.60;69.30;;;;;;4951340;28;20079;-79
2022/10/23 14:00:15;;;;;;;;;;;19.60;69.40;;;;;;4968790;28;20087;-78
2022/10/23 14:02:41;;;;;;;;;;;19.60;69.70;;;;;;4964928;28;20254;-78
2022/10/23 14:05:07;;;;;;;;;;;19.50;70.40;;;;;;4971353;28;19909;-79
2022/10/23 14:07:32;;;;;;;;;;;19.50;69.90;;;;;;4950151;28;19909;-79
2022/10/23 14:09:57;;;;;;;;;;;19.40;70.10;;;;;;4972298;28;19909;-78
2022/10/23 14:12:23;;;;;;;;;;;19.50;69.80;;;;;;4959117;28;20402;-78
2022/10/23 14:14:51;;;;;;;;;;;19.60;69.10;;;;;;4945598;28;19956;-78
2022/10/23 14:17:18;;;;;;;;;;;19.60;69.50;;;;;;4951120;28;19909;-78
2022/10/23 14:19:44;;;;;;;;;;;19.50;69.20;;;;;;4955361;28;20060;-77
2022/10/23 14:22:10;;;;;;;;;;;19.50;69.90;;;;;;4968731;28;20788;-78
2022/10/23 14:24:35;;;;;;;;;;;19.30;69.60;;;;;;4944007;28;20227;-78
2022/10/23 14:27:01;;;;;;;;;;;19.40;69.80;;;;;;4938245;28;20027;-79
2022/10/23 14:29:27;;;;;;;;;;;19.50;69.40;;;;;;4952364;28;20179;-79
2022/10/23 14:31:52;;;;;;;;;;;19.60;69.60;;;;;;4956098;28;20091;-79
2022/10/23 14:34:18;;;;;;;;;;;19.40;68.90;;;;;;4968202;28;20199;-78
2022/10/23 14:36:43;;;;;;;;;;;19.30;69.00;;;;;;4969089;28;20747;-78
2022/10/23 14:39:09;;;;;;;;;;;19.20;70.10;;;;;;4969633;28;19909;-80
2022/10/23 14:41:35;;;;;;;;;;;19.20;69.60;;;;;;4968090;28;20271;-79